createdAt,value
2023-02-26T00:01:47.411Z,72.90
2023-02-26T00:04:16.001Z,70.90
2023-02-26T00:06:53.214Z,71.40
2023-02-26T00:09:25.308Z,69.00
2023-02-26T00:11:55.983Z,68.70
2023-02-26T00:14:25.196Z,71.30
2023-02-26T00:17:07.148Z,72.00
2023-02-26T00:19:37.553Z,72.70
2023-02-26T00:22:06.809Z,72.30
2023-02-26T00:24:35.097Z,70.90
2023-02-26T00:27:05.020Z,71.00
2023-02-26T00:29:34.033Z,70.10
2023-02-26T00:32:02.931Z,71.10
2023-02-26T00:34:32.012Z,71.00
2023-02-26T00:37:11.571Z,70.80
2023-02-26T00:39:49.115Z,71.10
2023-02-26T00:42:20.010Z,70.70
2023-02-26T00:44:49.011Z,69.70
2023-02-26T00:47:26.373Z,70.30
2023-02-26T00:50:05.874Z,70.20
2023-02-26T00:52:43.710Z,69.80
2023-02-26T00:55:12.093Z,70.20
2023-02-26T00:57:41.827Z,72.20
2023-02-26T01:00:11.770Z,73.10
2023-02-26T01:02:41.568Z,72.20
2023-02-26T01:05:11.608Z,73.00
2023-02-26T01:07:45.316Z,74.10
2023-02-26T01:10:15.414Z,75.00
2023-02-26T01:12:45.865Z,74.30
2023-02-26T01:15:15.212Z,73.30
2023-02-26T01:17:48.779Z,74.70
2023-02-26T01:20:21.164Z,74.30
2023-02-26T01:22:55.532Z,73.70
2023-02-26T01:25:29.021Z,71.80
2023-02-26T01:27:59.111Z,71.10
2023-02-26T01:30:28.470Z,70.40
2023-02-26T01:33:04.745Z,71.30
2023-02-26T01:35:42.088Z,71.40
2023-02-26T01:38:25.937Z,70.70
2023-02-26T01:41:21.726Z,70.80
2023-02-26T01:44:00.829Z,70.80
2023-02-26T01:46:37.891Z,70.40
2023-02-26T01:49:13.663Z,70.30
2023-02-26T01:51:46.084Z,71.20
2023-02-26T01:54:15.611Z,71.20
2023-02-26T01:56:46.129Z,70.70
2023-02-26T01:59:18.229Z,69.70
2023-02-26T02:01:46.617Z,69.90
2023-02-26T02:04:16.939Z,70.40
2023-02-26T02:06:46.113Z,70.30
2023-02-26T02:09:14.813Z,69.20
2023-02-26T02:11:55.784Z,68.90
2023-02-26T02:14:32.730Z,69.10
2023-02-26T02:17:04.440Z,68.10
2023-02-26T02:19:55.049Z,67.90
2023-02-26T02:22:47.340Z,67.80
2023-02-26T02:25:52.513Z,67.90
2023-02-26T02:28:32.169Z,68.80
2023-02-26T02:31:09.515Z,69.00
2023-02-26T02:33:48.396Z,67.90
2023-02-26T02:36:22.085Z,68.10
2023-02-26T02:38:55.845Z,67.70
2023-02-26T02:41:29.577Z,69.00
2023-02-26T02:44:01.248Z,68.40
2023-02-26T02:46:33.983Z,68.40
2023-02-26T02:49:06.355Z,67.50
2023-02-26T02:51:38.736Z,66.50
2023-02-26T02:54:13.073Z,67.60
2023-02-26T02:56:46.774Z,67.80
2023-02-26T02:59:22.040Z,65.00
2023-02-26T03:01:59.887Z,67.00
2023-02-26T03:04:31.324Z,67.70
2023-02-26T03:06:59.842Z,68.80
2023-02-26T03:09:28.282Z,66.80
2023-02-26T03:11:56.852Z,68.00
2023-02-26T03:14:25.843Z,68.40
2023-02-26T03:17:10.470Z,67.30
2023-02-26T03:19:54.360Z,66.80
2023-02-26T03:22:30.018Z,67.00
2023-02-26T03:25:08.973Z,66.70
2023-02-26T03:27:44.875Z,66.50
2023-02-26T03:30:22.614Z,66.80
2023-02-26T03:33:00.158Z,67.60
2023-02-26T03:35:34.831Z,66.20
2023-02-26T03:38:08.617Z,65.70
2023-02-26T03:40:40.434Z,65.00
2023-02-26T03:43:16.959Z,65.50
2023-02-26T03:45:49.898Z,65.30
2023-02-26T03:48:25.330Z,67.10
2023-02-26T03:51:00.769Z,67.10
2023-02-26T03:53:52.859Z,65.60
2023-02-26T03:56:30.032Z,65.80
2023-02-26T03:59:01.380Z,63.40
2023-02-26T04:01:59.572Z,63.00
2023-02-26T04:04:34.581Z,65.80
2023-02-26T04:07:03.686Z,62.60
2023-02-26T04:09:32.106Z,62.70
2023-02-26T04:12:01.436Z,63.90
2023-02-26T04:14:29.836Z,64.10
2023-02-26T04:16:58.124Z,63.20
2023-02-26T04:19:26.647Z,62.70
2023-02-26T04:21:56.350Z,62.90
2023-02-26T04:24:25.062Z,62.60
2023-02-26T04:26:53.665Z,61.80
2023-02-26T04:29:22.004Z,61.70
2023-02-26T04:31:51.151Z,61.70
2023-02-26T04:34:19.609Z,63.40
2023-02-26T04:36:48.306Z,60.80
2023-02-26T04:39:18.196Z,62.50
2023-02-26T04:41:46.622Z,60.90
2023-02-26T04:44:14.966Z,60.90
2023-02-26T04:46:43.850Z,61.50
2023-02-26T04:49:12.253Z,60.50
2023-02-26T04:51:44.995Z,61.80
2023-02-26T04:54:17.789Z,63.40
2023-02-26T04:56:46.159Z,61.20
2023-02-26T04:59:14.462Z,62.20
2023-02-26T05:01:44.735Z,62.20
2023-02-26T05:04:13.209Z,61.10
2023-02-26T05:06:44.527Z,62.80
2023-02-26T05:09:13.094Z,61.90
2023-02-26T05:11:45.758Z,61.00
2023-02-26T05:14:16.423Z,61.10
2023-02-26T05:16:46.273Z,59.90
2023-02-26T05:19:14.832Z,60.20
2023-02-26T05:21:43.294Z,60.00
2023-02-26T05:24:11.786Z,59.70
2023-02-26T05:26:40.049Z,59.00
2023-02-26T05:29:10.042Z,58.80
2023-02-26T05:31:39.098Z,59.30
2023-02-26T05:34:07.413Z,60.00
2023-02-26T05:36:35.771Z,58.50
2023-02-26T05:39:04.729Z,59.00
2023-02-26T05:41:33.840Z,59.20
2023-02-26T05:44:02.666Z,59.10
2023-02-26T05:46:32.835Z,60.00
2023-02-26T05:49:01.967Z,58.40
2023-02-26T05:51:33.780Z,60.20
2023-02-26T05:54:02.233Z,61.00
2023-02-26T05:56:30.586Z,60.30
2023-02-26T05:58:58.916Z,71.60
2023-02-26T06:01:27.272Z,60.30
2023-02-26T06:03:56.955Z,60.00
2023-02-26T06:06:27.297Z,59.30
2023-02-26T06:08:55.829Z,59.60
2023-02-26T06:11:24.169Z,59.00
2023-02-26T06:13:52.550Z,58.60
2023-02-26T06:16:21.008Z,58.50
2023-02-26T06:18:49.810Z,58.20
2023-02-26T06:21:19.810Z,58.20
2023-02-26T06:23:48.217Z,59.00
2023-02-26T06:26:16.825Z,58.70
2023-02-26T06:28:45.289Z,57.90
2023-02-26T06:31:13.869Z,57.70
2023-02-26T06:33:42.212Z,57.90
2023-02-26T06:36:10.751Z,57.20
2023-02-26T06:38:40.815Z,57.70
2023-02-26T06:41:09.148Z,58.00
2023-02-26T06:43:37.535Z,58.10
2023-02-26T06:46:08.612Z,57.60
2023-02-26T06:48:39.817Z,57.80
2023-02-26T06:51:09.192Z,56.40
2023-02-26T06:53:41.903Z,56.20
2023-02-26T06:56:10.276Z,57.70
2023-02-26T06:58:38.552Z,56.70
2023-02-26T07:01:07.149Z,57.60
2023-02-26T07:03:35.466Z,58.80
2023-02-26T07:06:25.669Z,57.00
2023-02-26T07:08:54.396Z,57.90
2023-02-26T07:11:22.892Z,57.40
2023-02-26T07:13:52.143Z,58.50
2023-02-26T07:16:20.697Z,58.00
2023-02-26T07:18:49.095Z,57.40
2023-02-26T07:21:17.982Z,57.90
2023-02-26T07:23:46.424Z,57.80
2023-02-26T07:26:17.670Z,58.20
2023-02-26T07:28:46.107Z,57.30
2023-02-26T07:31:16.842Z,56.60
2023-02-26T07:33:47.034Z,56.00
2023-02-26T07:36:15.404Z,57.60
2023-02-26T07:38:43.987Z,58.20
2023-02-26T07:41:12.328Z,58.80
2023-02-26T07:43:42.676Z,57.10
2023-02-26T07:46:11.270Z,57.30
2023-02-26T07:48:39.988Z,58.20
2023-02-26T07:51:08.543Z,56.90
2023-02-26T07:53:36.882Z,57.10
2023-02-26T07:56:06.131Z,56.80
2023-02-26T07:58:34.804Z,56.80
2023-02-26T08:01:04.819Z,56.90
2023-02-26T08:03:33.412Z,57.10
2023-02-26T08:06:01.823Z,57.40
2023-02-26T08:08:30.290Z,56.80
2023-02-26T08:11:00.746Z,57.00
2023-02-26T08:13:29.972Z,55.70
2023-02-26T08:15:58.388Z,55.60
2023-02-26T08:18:28.151Z,56.30
2023-02-26T08:20:56.887Z,55.30
2023-02-26T08:23:26.842Z,55.80
2023-02-26T08:26:02.671Z,55.40
2023-02-26T08:28:31.088Z,55.30
2023-02-26T08:30:59.605Z,56.00
2023-02-26T08:33:30.601Z,56.00
2023-02-26T08:35:59.202Z,55.30
2023-02-26T08:38:27.813Z,56.50
2023-02-26T08:40:56.805Z,57.00
2023-02-26T08:43:25.316Z,56.80
2023-02-26T08:45:54.819Z,57.10
2023-02-26T08:48:23.218Z,57.20
2023-02-26T08:50:53.003Z,57.20
2023-02-26T08:53:21.386Z,57.70
2023-02-26T08:55:50.281Z,57.20
2023-02-26T08:58:19.241Z,57.40
2023-02-26T09:00:48.136Z,56.60
2023-02-26T09:03:16.953Z,57.60
2023-02-26T09:05:45.283Z,57.40
2023-02-26T09:08:16.147Z,57.60
2023-02-26T09:10:44.795Z,59.00
2023-02-26T09:13:13.257Z,60.00
2023-02-26T09:15:41.662Z,60.10
2023-02-26T09:18:15.688Z,60.00
2023-02-26T09:20:45.000Z,60.70
2023-02-26T09:23:14.748Z,61.00
2023-02-26T09:25:44.091Z,61.10
2023-02-26T09:28:12.464Z,61.80
2023-02-26T09:30:40.986Z,62.20
2023-02-26T09:33:09.711Z,61.90
2023-02-26T09:35:38.269Z,62.90
2023-02-26T09:38:06.689Z,63.10
2023-02-26T09:40:46.049Z,64.60
2023-02-26T09:43:32.416Z,63.70
2023-02-26T09:46:05.990Z,64.60
2023-02-26T09:48:38.556Z,65.10
2023-02-26T09:51:19.300Z,64.90
2023-02-26T09:53:50.586Z,66.10
2023-02-26T09:56:23.495Z,65.80
2023-02-26T09:58:53.303Z,66.90
2023-02-26T10:01:30.772Z,67.30
2023-02-26T10:04:09.588Z,66.90
2023-02-26T10:06:50.114Z,67.30
2023-02-26T10:09:31.055Z,68.00
2023-02-26T10:12:06.527Z,69.20
2023-02-26T10:14:39.641Z,69.40
2023-02-26T10:17:15.848Z,69.60
2023-02-26T10:19:48.880Z,70.20
2023-02-26T10:22:25.602Z,69.90
2023-02-26T10:24:59.593Z,71.20
2023-02-26T10:27:46.274Z,71.10
2023-02-26T10:30:23.489Z,71.60
2023-02-26T10:33:01.042Z,71.20
2023-02-26T10:35:33.155Z,71.70
2023-02-26T10:38:06.206Z,73.10
2023-02-26T10:40:38.610Z,73.10
2023-02-26T10:43:16.077Z,73.30
2023-02-26T10:45:58.334Z,73.40
2023-02-26T10:48:40.362Z,73.20
2023-02-26T10:51:14.941Z,74.00
2023-02-26T10:53:47.746Z,73.50
2023-02-26T10:56:19.366Z,74.30
2023-02-26T10:58:49.193Z,73.20
2023-02-26T11:01:20.579Z,74.10
2023-02-26T11:03:51.830Z,74.20
2023-02-26T11:06:25.229Z,75.30
2023-02-26T11:08:56.028Z,74.10
2023-02-26T11:11:38.793Z,74.40
2023-02-26T11:14:09.623Z,73.40
2023-02-26T11:16:44.249Z,74.30
2023-02-26T11:19:14.954Z,74.90
2023-02-26T11:21:47.495Z,74.50
2023-02-26T11:24:21.093Z,74.80
2023-02-26T11:26:51.964Z,75.10
2023-02-26T11:29:23.584Z,74.60
2023-02-26T11:31:52.827Z,75.00
2023-02-26T11:34:25.889Z,74.50
2023-02-26T11:36:58.218Z,75.00
2023-02-26T11:39:28.229Z,75.10
2023-02-26T11:41:59.672Z,75.80
2023-02-26T11:44:38.736Z,75.60
2023-02-26T11:47:09.251Z,75.70
2023-02-26T11:49:44.257Z,76.90
2023-02-26T11:52:23.543Z,76.30
2023-02-26T11:54:56.385Z,76.80
2023-02-26T11:57:27.411Z,77.30
2023-02-26T11:59:59.572Z,77.70
2023-02-26T12:02:35.074Z,78.50
2023-02-26T12:05:07.445Z,78.70
2023-02-26T12:07:36.083Z,79.00
2023-02-26T12:10:04.419Z,79.20
2023-02-26T12:12:43.815Z,79.20
2023-02-26T12:15:24.664Z,80.00
2023-02-26T12:18:23.810Z,80.20
2023-02-26T12:21:04.427Z,80.60
2023-02-26T12:24:09.364Z,80.40
2023-02-26T12:26:46.486Z,80.50
2023-02-26T12:29:38.507Z,81.60
2023-02-26T12:32:24.282Z,81.30
2023-02-26T12:35:17.991Z,81.10
2023-02-26T12:37:57.819Z,82.10
2023-02-26T12:41:05.023Z,83.00
2023-02-26T12:43:41.480Z,83.60
2023-02-26T12:46:30.515Z,83.50
2023-02-26T12:49:19.682Z,84.20
2023-02-26T12:52:01.264Z,84.50
2023-02-26T12:54:46.509Z,82.70
2023-02-26T12:57:33.459Z,82.90
2023-02-26T13:00:37.836Z,82.60
2023-02-26T13:03:23.753Z,83.40
2023-02-26T13:06:18.324Z,83.60
2023-02-26T13:08:55.474Z,83.10
2023-02-26T13:11:45.806Z,82.30
2023-02-26T13:14:26.891Z,81.00
2023-02-26T13:17:03.255Z,80.30
2023-02-26T13:19:43.464Z,79.10
2023-02-26T13:22:20.137Z,78.20
2023-02-26T13:24:55.409Z,78.00
2023-02-26T13:27:29.587Z,77.60
2023-02-26T13:30:19.893Z,77.40
2023-02-26T13:32:51.535Z,77.40
2023-02-26T13:35:23.435Z,77.10
2023-02-26T13:37:55.724Z,76.70
2023-02-26T13:40:40.068Z,76.20
2023-02-26T13:43:17.660Z,76.60
2023-02-26T13:45:54.734Z,76.80
2023-02-26T13:48:36.310Z,77.70
2023-02-26T13:51:08.985Z,78.80
2023-02-26T13:53:54.988Z,79.80
2023-02-26T13:56:44.824Z,80.50
2023-02-26T13:59:32.766Z,81.00
2023-02-26T14:02:04.660Z,82.00
2023-02-26T14:04:50.475Z,82.70
2023-02-26T14:07:39.012Z,82.50
2023-02-26T14:10:18.108Z,83.10
2023-02-26T14:12:46.603Z,83.30
2023-02-26T14:15:41.803Z,83.50
2023-02-26T14:18:26.285Z,83.00
2023-02-26T14:21:14.656Z,82.90
2023-02-26T14:23:47.897Z,83.20
2023-02-26T14:26:20.621Z,82.50
2023-02-26T14:28:58.823Z,82.50
2023-02-26T14:31:28.418Z,82.60
2023-02-26T14:34:15.358Z,83.20
2023-02-26T14:36:48.113Z,82.60
2023-02-26T14:39:31.316Z,81.70
2023-02-26T14:42:05.963Z,81.40
2023-02-26T14:44:41.062Z,81.80
2023-02-26T14:47:10.749Z,81.90
2023-02-26T14:49:41.512Z,81.50
2023-02-26T14:52:47.132Z,81.60
2023-02-26T14:55:36.709Z,82.20
2023-02-26T14:58:16.514Z,81.50
2023-02-26T15:00:53.486Z,81.80
2023-02-26T15:03:58.408Z,81.80
2023-02-26T15:06:56.443Z,81.40
2023-02-26T15:09:34.552Z,82.10
2023-02-26T15:12:20.804Z,82.00
2023-02-26T15:15:03.940Z,82.00
2023-02-26T15:17:48.406Z,81.40
2023-02-26T15:20:27.032Z,82.40
2023-02-26T15:23:11.249Z,82.50
2023-02-26T15:25:43.177Z,81.40
2023-02-26T15:28:19.645Z,80.30
2023-02-26T15:30:51.078Z,80.90
2023-02-26T15:33:21.470Z,81.80
2023-02-26T15:35:51.957Z,81.50
2023-02-26T15:38:20.579Z,80.50
2023-02-26T15:40:51.948Z,80.80
2023-02-26T15:43:24.480Z,79.90
2023-02-26T15:45:57.413Z,80.80
2023-02-26T15:48:30.512Z,81.20
2023-02-26T15:51:01.442Z,80.60
2023-02-26T15:53:33.915Z,81.90
2023-02-26T15:56:05.316Z,81.70
2023-02-26T15:58:40.871Z,81.80
2023-02-26T16:01:17.136Z,81.40
2023-02-26T16:03:45.812Z,82.40
2023-02-26T16:06:17.188Z,81.90
2023-02-26T16:08:45.719Z,82.40
2023-02-26T16:11:15.173Z,81.60
2023-02-26T16:13:45.092Z,81.70
2023-02-26T16:16:20.466Z,82.70
2023-02-26T16:18:49.341Z,82.30
2023-02-26T16:21:28.628Z,82.30
2023-02-26T16:23:58.453Z,82.70
2023-02-26T16:26:29.946Z,82.60
2023-02-26T16:29:03.204Z,82.80
2023-02-26T16:31:37.082Z,83.20
2023-02-26T16:34:09.829Z,83.70
2023-02-26T16:36:41.270Z,83.90
2023-02-26T16:39:19.632Z,84.30
2023-02-26T16:42:01.845Z,84.50
2023-02-26T16:44:52.650Z,83.70
2023-02-26T16:47:31.384Z,84.10
2023-02-26T16:49:59.856Z,83.80
2023-02-26T16:52:28.490Z,84.20
2023-02-26T16:55:02.561Z,84.10
2023-02-26T16:57:37.385Z,84.10
2023-02-26T17:00:10.962Z,84.40
2023-02-26T17:02:43.296Z,83.70
2023-02-26T17:05:26.013Z,83.80
2023-02-26T17:07:58.473Z,84.40
2023-02-26T17:10:35.887Z,83.60
2023-02-26T17:13:13.921Z,84.30
2023-02-26T17:15:43.090Z,84.70
2023-02-26T17:18:12.909Z,84.70
2023-02-26T17:20:41.896Z,84.50
2023-02-26T17:23:10.712Z,84.30
2023-02-26T17:25:42.009Z,84.50
2023-02-26T17:28:13.806Z,84.50
2023-02-26T17:30:42.306Z,84.00
2023-02-26T17:33:14.769Z,84.40
2023-02-26T17:35:44.368Z,84.70
2023-02-26T17:38:13.498Z,84.30
2023-02-26T17:40:43.356Z,84.20
2023-02-26T17:43:11.816Z,84.30
2023-02-26T17:45:41.702Z,85.20
2023-02-26T17:48:14.446Z,83.60
2023-02-26T17:50:47.129Z,83.60
2023-02-26T17:53:15.853Z,83.30
2023-02-26T17:55:45.086Z,83.10
2023-02-26T17:58:17.984Z,82.70
2023-02-26T18:00:49.925Z,82.60
2023-02-26T18:03:20.353Z,93.20
2023-02-26T18:05:49.693Z,98.40
2023-02-26T18:08:22.284Z,99.90
2023-02-26T18:10:51.177Z,99.90
2023-02-26T18:13:19.697Z,99.90
2023-02-26T18:15:48.835Z,99.90
2023-02-26T18:18:19.850Z,99.90
2023-02-26T18:20:48.657Z,99.90
2023-02-26T18:23:17.319Z,99.90
2023-02-26T18:25:48.318Z,99.90
2023-02-26T18:28:20.740Z,99.90
2023-02-26T18:30:49.729Z,99.90
2023-02-26T18:33:20.188Z,99.90
2023-02-26T18:35:53.202Z,99.90
2023-02-26T18:38:24.513Z,99.90
2023-02-26T18:40:53.891Z,99.90
2023-02-26T18:43:22.395Z,99.90
2023-02-26T18:45:52.421Z,99.90
2023-02-26T18:48:22.933Z,99.90
2023-02-26T18:50:51.321Z,99.90
2023-02-26T18:53:23.296Z,99.90
2023-02-26T18:55:53.609Z,99.90
2023-02-26T18:58:22.444Z,99.90
2023-02-26T19:00:51.122Z,99.90
2023-02-26T19:03:19.514Z,99.90
2023-02-26T19:05:57.371Z,99.90
2023-02-26T19:08:25.840Z,99.90
2023-02-26T19:10:54.261Z,99.90
2023-02-26T19:13:23.977Z,99.90
2023-02-26T19:15:52.646Z,99.90
2023-02-26T19:18:21.117Z,99.90
2023-02-26T19:20:50.939Z,99.90
2023-02-26T19:23:19.709Z,99.90
2023-02-26T19:25:48.175Z,99.90
2023-02-26T19:28:16.534Z,99.90
2023-02-26T19:30:44.953Z,99.90
2023-02-26T19:33:13.367Z,99.90
2023-02-26T19:35:41.955Z,99.90
2023-02-26T19:38:12.077Z,99.90
2023-02-26T19:40:40.845Z,99.90
2023-02-26T19:43:09.437Z,99.90
2023-02-26T19:45:38.939Z,99.90
2023-02-26T19:48:08.136Z,99.90
2023-02-26T19:50:38.104Z,99.90
2023-02-26T19:53:07.605Z,99.90
2023-02-26T19:55:38.487Z,99.90
2023-02-26T19:58:07.884Z,99.90
2023-02-26T20:00:37.926Z,99.90
2023-02-26T20:03:07.439Z,99.90
2023-02-26T20:05:38.273Z,99.90
2023-02-26T20:08:08.405Z,99.90
2023-02-26T20:10:40.064Z,99.90
2023-02-26T20:13:10.367Z,99.90
2023-02-26T20:15:40.886Z,99.90
2023-02-26T20:18:10.490Z,99.90
2023-02-26T20:20:40.474Z,99.90
2023-02-26T20:23:11.759Z,99.90
2023-02-26T20:25:49.296Z,99.90
2023-02-26T20:28:21.159Z,99.90
2023-02-26T20:30:52.454Z,99.90
2023-02-26T20:33:24.402Z,99.90
2023-02-26T20:35:56.894Z,99.90
2023-02-26T20:38:28.955Z,99.90
2023-02-26T20:41:01.749Z,99.90
2023-02-26T20:43:33.032Z,99.90
2023-02-26T20:46:03.905Z,99.90
2023-02-26T20:48:38.108Z,99.90
2023-02-26T20:51:10.753Z,99.90
2023-02-26T20:53:42.302Z,99.90
2023-02-26T20:56:15.539Z,99.90
2023-02-26T20:58:46.806Z,99.90
2023-02-26T21:01:17.726Z,99.90
2023-02-26T21:03:49.176Z,99.90
2023-02-26T21:06:20.589Z,99.90
2023-02-26T21:08:52.027Z,99.90
2023-02-26T21:11:26.672Z,99.90
2023-02-26T21:13:58.418Z,99.90
2023-02-26T21:16:30.912Z,99.90
2023-02-26T21:19:02.950Z,99.90
2023-02-26T21:21:35.133Z,99.90
2023-02-26T21:24:07.520Z,99.90
2023-02-26T21:26:41.447Z,99.90
2023-02-26T21:29:13.352Z,99.90
2023-02-26T21:31:44.074Z,99.90
2023-02-26T21:34:32.649Z,99.90
2023-02-26T21:37:06.643Z,99.90
2023-02-26T21:39:39.368Z,99.90
2023-02-26T21:42:13.911Z,99.90
2023-02-26T21:44:44.465Z,99.90
2023-02-26T21:47:14.332Z,99.90
2023-02-26T21:49:43.738Z,99.90
2023-02-26T21:52:14.106Z,99.90
2023-02-26T21:54:44.189Z,99.90
2023-02-26T21:57:14.985Z,99.90
2023-02-26T21:59:44.507Z,99.90
2023-02-26T22:02:14.003Z,99.90
2023-02-26T22:04:43.256Z,99.90
2023-02-26T22:07:11.796Z,99.90
2023-02-26T22:09:40.619Z,99.90
2023-02-26T22:12:09.340Z,99.90
2023-02-26T22:14:39.010Z,99.90
2023-02-26T22:17:07.356Z,99.90
2023-02-26T22:19:35.855Z,99.90
2023-02-26T22:22:04.122Z,99.90
2023-02-26T22:24:32.525Z,99.90
2023-02-26T22:27:03.342Z,99.90
2023-02-26T22:29:32.132Z,99.90
2023-02-26T22:32:01.903Z,99.90
2023-02-26T22:34:33.263Z,99.90
2023-02-26T22:37:01.653Z,99.90
2023-02-26T22:39:29.930Z,99.90
2023-02-26T22:42:01.030Z,99.90
2023-02-26T22:44:29.452Z,99.90
2023-02-26T22:46:57.843Z,99.90
2023-02-26T22:49:28.647Z,99.90
2023-02-26T22:51:56.948Z,99.90
2023-02-26T22:54:25.306Z,99.90
2023-02-26T22:56:54.432Z,99.90
2023-02-26T22:59:25.638Z,99.90
2023-02-26T23:01:54.154Z,99.90
2023-02-26T23:04:22.564Z,99.90
2023-02-26T23:06:52.420Z,99.90
2023-02-26T23:09:21.112Z,99.90
2023-02-26T23:11:49.442Z,99.90
2023-02-26T23:14:18.211Z,99.90
2023-02-26T23:16:46.548Z,99.90
2023-02-26T23:19:14.930Z,99.90
2023-02-26T23:21:43.212Z,99.90
2023-02-26T23:24:12.907Z,99.90
2023-02-26T23:26:41.335Z,99.90
2023-02-26T23:29:09.801Z,99.90
2023-02-26T23:31:38.297Z,99.90
2023-02-26T23:34:07.432Z,99.90
2023-02-26T23:36:36.616Z,99.90
2023-02-26T23:39:05.190Z,99.90
2023-02-26T23:41:36.176Z,99.90
2023-02-26T23:44:04.517Z,99.90
2023-02-26T23:46:33.036Z,99.90
2023-02-26T23:49:01.318Z,99.90
2023-02-26T23:51:29.676Z,99.90
2023-02-26T23:53:57.955Z,99.90
2023-02-26T23:56:26.434Z,99.90
2023-02-26T23:58:56.642Z,99.90
